Time;durP1;ratioP1;P1;durP2;ratioP2;P2;SDS_P1;SDS_P2;PMS_P1;PMS_P2;Temp;Humidity;BMP_temperature;BMP_pressure;BME280_temperature;BME280_humidity;BME280_pressure;Samples;Min_cycle;Max_cycle;Signal;HPM_P1;HPM_P2
2020/12/06 00:01:37;;;;;;;22.80;13.88;;;2.60;99.90;;;3.19;84.25;99304.09;4976831;28;20027;-82
2020/12/06 00:04:07;;;;;;;21.02;13.43;;;2.60;99.90;;;3.22;84.96;99305.34;4977484;28;20537;-82
2020/12/06 00:06:33;;;;;;;22.05;13.88;;;2.60;99.90;;;3.23;84.26;99295.94;4977520;28;20030;-82
2020/12/06 00:09:00;;;;;;;24.35;13.70;;;2.60;99.90;;;3.19;84.37;99284.78;4978052;28;20136;-83
2020/12/06 00:11:26;;;;;;;25.02;13.88;;;2.60;99.90;;;3.18;84.30;99274.88;4977754;28;20045;-83
2020/12/06 00:13:59;;;;;;;23.52;13.27;;;2.60;99.90;;;3.15;84.58;99242.47;4978439;28;20101;-83
2020/12/06 00:16:25;;;;;;;24.45;14.27;;;2.60;99.90;;;3.10;85.16;99238.00;4977450;28;20049;-82
2020/12/06 00:18:51;;;;;;;21.40;13.48;;;2.50;99.90;;;3.10;84.78;99240.75;4961776;28;20031;-83
2020/12/06 00:21:20;;;;;;;24.25;13.02;;;2.50;99.90;;;3.09;84.89;99243.84;4977371;28;20579;-82
2020/12/06 00:23:47;;;;;;;23.23;13.82;;;2.60;99.90;;;3.11;84.40;99227.78;4978754;28;20031;-83
2020/12/06 00:26:40;;;;;;;24.30;14.43;;;2.50;99.90;;;3.04;84.61;99230.28;4977299;28;20039;-84
2020/12/06 00:29:05;;;;;;;24.98;14.60;;;2.40;99.90;;;2.97;85.06;99230.84;4959855;28;20039;-82
2020/12/06 00:31:31;;;;;;;22.88;13.30;;;2.40;99.90;;;2.91;85.27;99229.47;4977498;28;20158;-84
2020/12/06 00:34:00;;;;;;;22.90;13.13;;;2.40;99.90;;;2.87;85.91;99236.00;4978204;28;20478;-83
2020/12/06 00:36:26;;;;;;;24.08;14.15;;;2.30;99.90;;;2.83;85.94;99233.09;4977671;28;20483;-82
2020/12/06 00:38:52;;;;;;;26.10;15.38;;;2.30;99.90;;;2.81;86.21;99242.88;4977395;28;20037;-83
2020/12/06 00:41:19;;;;;;;23.95;13.93;;;2.20;99.90;;;2.79;86.21;99234.94;4979855;28;20038;-84
2020/12/06 00:43:45;;;;;;;27.73;15.13;;;2.20;99.90;;;2.82;86.24;99227.94;4979785;28;20110;-83
2020/12/06 00:46:11;;;;;;;24.95;15.00;;;2.20;99.90;;;2.81;86.42;99224.38;4978245;28;20114;-82
2020/12/06 00:48:38;;;;;;;26.75;15.20;;;2.20;99.90;;;2.78;86.38;99219.56;4980746;28;20031;-83
2020/12/06 00:51:04;;;;;;;26.85;15.02;;;2.20;99.90;;;2.82;86.68;99203.94;4977325;28;20058;-81
2020/12/06 00:53:30;;;;;;;28.27;16.50;;;2.20;99.90;;;2.79;86.62;99190.84;4976246;28;20035;-81
2020/12/06 00:55:55;;;;;;;29.73;16.85;;;2.10;99.90;;;2.76;86.71;99185.97;4976791;28;20039;-83
2020/12/06 00:58:21;;;;;;;28.50;16.42;;;2.20;99.90;;;2.71;86.62;99186.22;4976485;28;20503;-81
2020/12/06 01:00:48;;;;;;;34.00;17.42;;;2.10;99.90;;;2.64;86.92;99197.81;4976466;28;20035;-82
2020/12/06 01:03:16;;;;;;;29.70;17.83;;;2.10;99.90;;;2.61;87.15;99198.47;4960066;28;20031;-82
2020/12/06 01:05:42;;;;;;;30.05;17.08;;;2.00;99.90;;;2.61;87.25;99209.50;4975826;28;20034;-82
2020/12/06 01:08:08;;;;;;;33.47;17.25;;;2.00;99.90;;;2.59;87.65;99205.50;4976752;28;20073;-83
2020/12/06 01:10:34;;;;;;;30.15;17.65;;;2.00;99.90;;;2.56;87.78;99192.38;4982661;28;20041;-81
2020/12/06 01:13:00;;;;;;;29.45;16.67;;;2.00;99.90;;;2.61;87.72;99201.25;4981015;28;20475;-83
2020/12/06 01:15:26;;;;;;;30.38;17.15;;;2.00;99.90;;;2.56;87.62;99209.72;4982823;28;20117;-83
2020/12/06 01:17:53;;;;;;;39.92;19.67;;;2.00;99.90;;;2.49;88.35;99216.94;4987680;28;20039;-82
2020/12/06 01:20:19;;;;;;;35.88;19.35;;;1.90;99.90;;;2.52;88.34;99194.19;4984494;28;20054;-82
2020/12/06 01:22:45;;;;;;;33.45;18.17;;;1.90;99.90;;;2.55;87.86;99199.84;4977349;28;20026;-82
2020/12/06 01:25:11;;;;;;;32.40;17.70;;;1.90;99.90;;;2.56;87.97;99222.69;4977556;28;20035;-82
2020/12/06 01:27:37;;;;;;;33.65;18.75;;;2.00;99.90;;;2.53;88.73;99196.63;4976500;28;20438;-82
2020/12/06 01:30:05;;;;;;;31.55;18.42;;;1.90;99.90;;;2.57;88.50;99193.97;4979141;28;20035;-83
2020/12/06 01:32:34;;;;;;;33.00;18.92;;;2.00;99.90;;;2.55;88.19;99208.13;4977798;28;20042;-84
2020/12/06 01:35:04;;;;;;;32.58;18.10;;;2.00;99.90;;;2.55;88.31;99219.13;4975960;28;20053;-83
2020/12/06 01:37:30;;;;;;;30.52;17.05;;;2.00;99.90;;;2.50;88.35;99227.63;4975790;28;20041;-83
2020/12/06 01:39:56;;;;;;;34.08;19.20;;;1.90;99.90;;;2.47;88.75;99202.69;4975786;28;20043;-81
2020/12/06 01:42:23;;;;;;;32.08;17.67;;;1.90;99.90;;;2.48;88.86;99216.13;4975113;28;20094;-82
2020/12/06 01:45:00;;;;;;;39.05;19.95;;;1.90;99.90;;;2.48;89.04;99229.91;4976338;28;20031;-81
2020/12/06 01:47:28;;;;;;;36.75;20.27;;;1.90;99.90;;;2.48;89.35;99218.88;4958955;28;20406;-82
2020/12/06 01:49:57;;;;;;;38.58;20.45;;;1.90;99.90;;;2.43;89.28;99224.63;4974603;28;20410;-82
2020/12/06 01:52:26;;;;;;;39.95;20.95;;;1.90;99.90;;;2.48;89.19;99231.84;4974426;28;20428;-80
2020/12/06 01:54:53;;;;;;;39.97;19.48;;;1.90;99.90;;;2.47;89.21;99230.25;4975929;28;20034;-81
2020/12/06 01:57:21;;;;;;;36.53;20.23;;;1.90;99.90;;;2.39;89.48;99223.66;4976560;28;20086;-83
2020/12/06 01:59:47;;;;;;;38.65;20.25;;;1.90;99.90;;;2.38;89.69;99204.72;4975974;28;20104;-80
2020/12/06 02:02:15;;;;;;;35.08;19.45;;;1.90;99.90;;;2.41;89.89;99190.28;4975411;28;20031;-83
2020/12/06 02:04:44;;;;;;;35.33;19.55;;;1.90;99.90;;;2.45;89.05;99182.94;4974177;28;20031;-82
2020/12/06 02:07:10;;;;;;;38.05;19.88;;;1.90;99.90;;;2.41;89.37;99171.78;4974401;28;20034;-82
2020/12/06 02:09:35;;;;;;;34.30;18.67;;;1.90;99.90;;;2.43;88.90;99172.25;4975591;28;20030;-82
2020/12/06 02:12:09;;;;;;;28.02;16.67;;;1.80;99.90;;;2.33;89.21;99191.97;4974814;28;20083;-83
2020/12/06 02:14:36;;;;;;;32.38;17.25;;;1.80;99.90;;;2.27;89.47;99204.34;4975776;28;20038;-81
2020/12/06 02:17:02;;;;;;;31.67;17.67;;;1.70;99.90;;;2.18;89.55;99222.09;4975817;28;20035;-83
2020/12/06 02:19:28;;;;;;;33.05;18.15;;;1.60;99.90;;;2.09;89.77;99214.69;4975954;28;20074;-82
2020/12/06 02:21:54;;;;;;;32.33;18.73;;;1.50;99.90;;;2.03;90.06;99220.72;4974679;28;20078;-82
2020/12/06 02:24:20;;;;;;;32.97;18.52;;;1.50;99.90;;;2.00;90.11;99229.66;4975940;28;20518;-82
2020/12/06 02:26:51;;;;;;;33.58;18.48;;;1.50;99.90;;;2.02;90.19;99233.69;4974334;28;20478;-82
2020/12/06 02:29:20;;;;;;;35.85;19.80;;;1.40;99.90;;;1.99;90.44;99241.84;4958728;28;20035;-83
2020/12/06 02:31:47;;;;;;;34.85;19.25;;;1.40;99.90;;;1.95;90.37;99244.47;4974843;28;20081;-82
2020/12/06 02:34:16;;;;;;;28.40;17.92;;;1.40;99.90;;;1.87;90.59;99233.50;4983017;28;20039;-81
2020/12/06 02:36:42;;;;;;;31.13;17.83;;;1.30;99.90;;;1.83;90.65;99232.56;4984125;28;20128;-81
2020/12/06 02:39:11;;;;;;;34.78;19.63;;;1.30;99.90;;;1.84;90.76;99234.16;4985258;28;20031;-81
2020/12/06 02:41:42;;;;;;;31.45;18.25;;;1.20;99.90;;;1.85;91.02;99239.34;4984547;28;20037;-82
2020/12/06 02:44:11;;;;;;;35.63;19.60;;;1.30;99.90;;;1.91;90.68;99246.25;4984591;28;20098;-82
2020/12/06 02:46:39;;;;;;;37.08;19.02;;;1.30;99.90;;;1.92;91.07;99239.63;4985893;28;20083;-81
2020/12/06 02:49:06;;;;;;;35.55;18.58;;;1.30;99.90;;;1.95;90.88;99224.38;4977164;28;20129;-81
2020/12/06 02:51:34;;;;;;;40.72;21.13;;;1.40;99.90;;;1.98;91.10;99221.75;4975063;28;20039;-81
2020/12/06 02:54:00;;;;;;;35.83;19.33;;;1.40;99.90;;;2.02;91.08;99213.63;4975540;28;20039;-82
2020/12/06 02:56:25;;;;;;;38.53;20.67;;;1.40;99.90;;;2.05;91.21;99213.78;4975224;28;20564;-81
2020/12/06 02:58:51;;;;;;;37.13;21.20;;;1.40;99.90;;;2.08;91.21;99218.59;4976639;28;20034;-83
2020/12/06 03:01:17;;;;;;;37.05;19.60;;;1.50;99.90;;;2.11;90.92;99217.94;4975273;28;20054;-81
2020/12/06 03:03:48;;;;;;;36.30;21.08;;;1.50;99.90;;;2.15;91.11;99211.75;4982761;28;20050;-82
2020/12/06 03:06:14;;;;;;;32.55;19.95;;;1.50;99.90;;;2.22;90.66;99218.31;4982835;28;20034;-83
2020/12/06 03:08:48;;;;;;;37.28;20.33;;;1.60;99.90;;;2.23;90.88;99222.69;4981219;28;20031;-83
2020/12/06 03:11:14;;;;;;;35.92;19.77;;;1.60;99.90;;;2.26;90.77;99230.28;4984872;28;20034;-82
2020/12/06 03:13:40;;;;;;;38.88;20.15;;;1.60;99.90;;;2.27;90.45;99234.66;4985016;28;20121;-82
2020/12/06 03:16:06;;;;;;;36.70;21.55;;;1.70;99.90;;;2.26;91.06;99237.72;4984193;28;20039;-82
2020/12/06 03:18:33;;;;;;;36.20;20.30;;;1.70;99.90;;;2.31;91.04;99230.06;4987107;28;20038;-81
2020/12/06 03:21:01;;;;;;;40.20;21.67;;;1.70;99.90;;;2.36;90.62;99227.09;4985130;28;20030;-82
2020/12/06 03:23:27;;;;;;;32.60;18.92;;;1.80;99.90;;;2.42;90.04;99230.44;4985439;28;20030;-82
2020/12/06 03:25:53;;;;;;;36.88;20.58;;;1.80;99.90;;;2.43;90.25;99229.31;4985549;28;20038;-85
2020/12/06 03:28:19;;;;;;;40.50;20.25;;;1.80;99.90;;;2.47;90.07;99225.53;4986284;28;20061;-84
2020/12/06 03:30:45;;;;;;;33.42;18.98;;;1.80;99.90;;;2.49;89.72;99216.94;4985553;28;20041;-81
2020/12/06 03:33:11;;;;;;;35.65;18.42;;;1.90;99.90;;;2.55;89.83;99221.91;4985985;28;20212;-82
2020/12/06 03:35:37;;;;;;;33.53;19.23;;;1.90;99.90;;;2.51;89.57;99220.16;4984779;28;20038;-83
2020/12/06 03:38:03;;;;;;;38.45;18.83;;;1.90;99.90;;;2.54;89.66;99214.75;4969234;28;20395;-83
2020/12/06 03:40:31;;;;;;;34.63;18.63;;;2.00;99.90;;;2.57;89.59;99216.84;4985560;28;20499;-79
2020/12/06 03:42:57;;;;;;;29.02;17.48;;;1.90;99.90;;;2.57;89.42;99200.31;4987621;28;20031;-82
2020/12/06 03:45:23;;;;;;;37.08;18.27;;;2.00;99.90;;;2.56;89.52;99195.94;4987568;28;20035;-83
2020/12/06 03:47:49;;;;;;;34.15;18.80;;;2.00;99.90;;;2.60;89.26;99207.88;4988066;28;20050;-83
2020/12/06 03:50:15;;;;;;;29.20;16.20;;;1.90;99.90;;;2.59;88.86;99217.31;4986415;28;20038;-81
2020/12/06 03:52:41;;;;;;;32.53;18.13;;;2.00;99.90;;;2.64;88.90;99224.56;4987472;28;20086;-81
2020/12/06 03:55:12;;;;;;;28.08;16.52;;;2.00;99.90;;;2.64;88.79;99233.63;4988759;28;20113;-82
2020/12/06 03:57:38;;;;;;;29.63;15.93;;;2.00;99.90;;;2.73;88.60;99233.53;4989937;28;20038;-84
2020/12/06 04:00:05;;;;;;;29.25;16.60;;;2.00;99.90;;;2.69;88.70;99226.31;4972952;28;20035;-83
2020/12/06 04:02:31;;;;;;;30.80;16.40;;;2.00;99.90;;;2.71;88.72;99224.81;4988393;28;20042;-83
2020/12/06 04:04:57;;;;;;;27.88;16.35;;;2.00;99.90;;;2.69;88.86;99224.34;4997118;28;20042;-81
2020/12/06 04:07:23;;;;;;;29.48;16.45;;;2.00;99.90;;;2.74;88.76;99215.84;5000404;28;20038;-81
2020/12/06 04:09:49;;;;;;;32.80;17.38;;;2.00;99.90;;;2.72;88.67;99225.63;4999637;28;20062;-82
2020/12/06 04:12:18;;;;;;;27.63;16.70;;;2.10;99.90;;;2.68;89.00;99225.50;5025888;22;20110;-82
2020/12/06 04:14:44;;;;;;;27.88;16.13;;;2.00;99.90;;;2.70;89.16;99214.13;5017307;28;20041;-81
2020/12/06 04:17:10;;;;;;;31.42;16.30;;;2.00;99.90;;;2.67;89.07;99205.38;5019641;28;20022;-82
2020/12/06 04:19:35;;;;;;;28.48;16.77;;;2.00;99.90;;;2.64;89.29;99186.78;5018268;28;20029;-82
2020/12/06 04:22:05;;;;;;;31.15;17.15;;;2.00;99.90;;;2.72;89.20;99178.75;5001638;28;20506;-80
2020/12/06 04:24:35;;;;;;;35.30;19.08;;;2.00;99.90;;;2.61;89.16;99170.91;4999574;28;20362;-82
2020/12/06 04:27:01;;;;;;;30.20;17.35;;;2.00;99.90;;;2.66;89.03;99180.94;4981718;28;20033;-81
2020/12/06 04:29:27;;;;;;;32.88;18.27;;;2.10;99.90;;;2.63;89.16;99160.34;4981219;28;20049;-80
2020/12/06 04:31:53;;;;;;;32.35;18.25;;;2.00;99.90;;;2.67;89.12;99149.44;4998872;28;20038;-81
2020/12/06 04:34:19;;;;;;;32.55;18.63;;;2.00;99.90;;;2.65;89.43;99147.03;4981288;28;20041;-82
2020/12/06 04:36:45;;;;;;;36.35;19.23;;;2.00;99.90;;;2.59;89.59;99153.94;4998991;28;20030;-80
2020/12/06 04:39:11;;;;;;;38.50;20.02;;;2.00;99.90;;;2.56;89.82;99162.88;4996875;28;20385;-81
2020/12/06 04:41:37;;;;;;;41.10;22.60;;;1.90;99.90;;;2.55;90.47;99174.22;4996575;28;20137;-81
2020/12/06 04:44:03;;;;;;;39.17;20.88;;;1.90;99.90;;;2.58;90.28;99185.38;4980435;28;20041;-81
2020/12/06 04:46:38;;;;;;;36.70;21.38;;;1.90;99.90;;;2.60;90.86;99188.59;4998192;28;20061;-81
2020/12/06 04:49:26;;;;;;;39.92;22.05;;;2.00;99.90;;;2.61;90.66;99194.91;4998190;28;20425;-80
2020/12/06 04:51:57;;;;;;;42.10;21.90;;;2.00;99.90;;;2.66;90.62;99203.75;4996111;28;20026;-81
2020/12/06 04:54:37;;;;;;;42.10;20.63;;;2.00;99.90;;;2.70;90.30;99203.13;4998119;28;20038;-80
2020/12/06 04:57:06;;;;;;;40.67;21.63;;;2.00;99.90;;;2.71;90.16;99200.00;4994977;28;20026;-81
2020/12/06 04:59:41;;;;;;;38.80;21.70;;;2.10;99.90;;;2.76;90.40;99190.72;4979035;28;20034;-80
2020/12/06 05:02:12;;;;;;;40.25;21.88;;;2.10;99.90;;;2.73;90.39;99172.88;4996247;28;20030;-81
2020/12/06 05:04:55;;;;;;;39.72;20.33;;;2.10;99.90;;;2.73;90.36;99161.06;4979298;28;20042;-79
2020/12/06 05:07:23;;;;;;;41.50;21.40;;;2.10;99.90;;;2.77;90.71;99164.75;4997709;28;20030;-79
2020/12/06 05:09:56;;;;;;;40.22;20.98;;;2.10;99.90;;;2.78;90.38;99153.38;5002116;28;20509;-83
2020/12/06 05:12:22;;;;;;;38.60;22.50;;;2.10;99.90;;;2.81;90.35;99171.19;4990502;28;20042;-83
2020/12/06 05:14:50;;;;;;;42.72;23.10;;;2.10;99.90;;;2.77;90.55;99175.75;4995432;28;20041;-83
2020/12/06 05:17:16;;;;;;;42.85;22.13;;;2.10;99.90;;;2.79;90.92;99187.28;5003577;28;20382;-81
2020/12/06 05:19:41;;;;;;;40.50;22.67;;;2.10;99.90;;;2.84;90.73;99184.28;4997411;28;20034;-82
2020/12/06 05:22:08;;;;;;;37.95;20.25;;;2.10;99.90;;;2.88;90.64;99169.47;4979523;28;20441;-82
2020/12/06 05:24:37;;;;;;;37.30;22.42;;;2.20;99.90;;;2.86;90.16;99157.19;4994703;28;20109;-83
2020/12/06 05:27:08;;;;;;;39.95;22.27;;;2.20;99.90;;;2.85;90.51;99158.34;4996075;28;20040;-80
2020/12/06 05:29:41;;;;;;;44.20;22.40;;;2.20;99.90;;;2.85;90.47;99147.31;4994959;28;20073;-82
2020/12/06 05:32:09;;;;;;;38.67;21.48;;;2.20;99.90;;;2.86;90.41;99160.72;4995953;28;20027;-81
2020/12/06 05:34:39;;;;;;;37.33;20.23;;;2.20;99.90;;;2.83;90.49;99157.84;4994487;28;20090;-81
2020/12/06 05:37:08;;;;;;;35.95;21.45;;;2.20;99.90;;;2.88;90.52;99163.16;4994482;28;20030;-81
2020/12/06 05:39:34;;;;;;;37.75;20.38;;;2.20;99.90;;;2.84;90.93;99165.78;4994831;28;20029;-81
2020/12/06 05:42:02;;;;;;;38.47;21.77;;;2.20;99.90;;;2.89;90.84;99162.03;4994345;28;20482;-81
2020/12/06 05:44:31;;;;;;;39.92;22.17;;;2.20;99.90;;;2.85;90.61;99158.34;4994831;28;20430;-83
2020/12/06 05:47:00;;;;;;;41.25;22.52;;;2.20;99.90;;;2.91;91.12;99163.28;4993809;28;20544;-80
2020/12/06 05:49:26;;;;;;;40.20;22.70;;;2.20;99.90;;;2.89;90.93;99162.03;4995828;28;20090;-80
2020/12/06 05:51:55;;;;;;;42.30;22.65;;;2.20;99.90;;;2.89;91.03;99157.28;4978311;28;20058;-82
2020/12/06 05:54:24;;;;;;;42.55;23.38;;;2.20;99.90;;;2.89;90.91;99156.50;4994515;28;20027;-81
2020/12/06 05:56:54;;;;;;;42.63;24.02;;;2.20;99.90;;;2.91;90.88;99165.22;4978798;28;20050;-80
2020/12/06 05:59:26;;;;;;;45.78;22.60;;;2.20;99.90;;;2.91;91.02;99170.75;4997305;28;20102;-80
2020/12/06 06:01:55;;;;;;;45.05;23.63;;;2.20;99.90;;;2.96;90.99;99171.31;4996233;28;20026;-82
2020/12/06 06:04:24;;;;;;;45.17;23.40;;;2.30;99.90;;;2.97;90.75;99183.16;4996075;28;20474;-81
2020/12/06 06:07:08;;;;;;;45.20;23.75;;;2.30;99.90;;;2.97;91.06;99192.25;4994942;28;20030;-82
2020/12/06 06:09:42;;;;;;;44.00;22.30;;;2.30;99.90;;;2.96;91.30;99192.56;4994457;28;20030;-80
2020/12/06 06:12:38;;;;;;;39.60;22.10;;;2.30;99.90;;;2.98;90.79;99187.53;4977901;28;20027;-82
2020/12/06 06:15:05;;;;;;;47.42;23.85;;;2.30;99.90;;;2.98;90.64;99182.81;4994972;28;20397;-82
2020/12/06 06:17:32;;;;;;;41.70;22.80;;;2.30;99.90;;;2.97;91.17;99188.66;4995757;28;20034;-80
2020/12/06 06:19:59;;;;;;;44.25;23.63;;;2.30;99.90;;;3.01;91.03;99184.91;4997658;28;20496;-81
2020/12/06 06:22:40;;;;;;;86.28;41.90;;;2.30;99.90;;;2.97;91.20;99178.44;5000895;28;20034;-80
2020/12/06 06:25:11;;;;;;;60.80;30.80;;;2.30;99.90;;;2.97;90.87;99175.69;4989349;28;20026;-82
2020/12/06 06:27:41;;;;;;;46.60;24.20;;;2.30;99.90;;;3.00;91.24;99177.75;4998950;28;20097;-80
2020/12/06 06:30:09;;;;;;;47.17;23.92;;;2.30;99.90;;;3.00;90.99;99177.75;5015328;28;20036;-80
2020/12/06 06:32:39;;;;;;;62.85;30.08;;;2.30;99.90;;;3.04;90.86;99181.44;5014029;28;20046;-78
2020/12/06 06:35:08;;;;;;;158.27;63.35;;;2.30;99.90;;;3.08;90.69;99187.88;5014451;28;20057;-80
2020/12/06 06:37:37;;;;;;;51.33;27.88;;;2.30;99.90;;;3.21;90.17;99180.44;5014102;28;20057;-77
2020/12/06 06:40:09;;;;;;;74.85;40.35;;;2.40;99.90;;;3.20;90.01;99170.53;5015250;28;20077;-78
2020/12/06 06:42:38;;;;;;;49.97;24.98;;;2.40;99.90;;;3.16;90.27;99158.56;5011024;28;20038;-81
2020/12/06 06:45:10;;;;;;;88.07;37.00;;;2.40;99.90;;;3.12;90.89;99154.88;4996035;28;20073;-82
2020/12/06 06:47:40;;;;;;;70.57;31.13;;;2.50;99.90;;;3.11;90.96;99169.84;4995194;28;20461;-79
2020/12/06 06:50:11;;;;;;;42.72;22.92;;;2.40;99.90;;;3.13;90.97;99167.53;4996661;28;20027;-79
2020/12/06 06:52:42;;;;;;;41.63;23.17;;;2.40;99.90;;;3.12;91.54;99168.69;4996810;28;20153;-81
2020/12/06 06:55:12;;;;;;;62.28;31.38;;;2.40;99.90;;;3.11;91.23;99159.59;4995529;28;20034;-80
2020/12/06 06:57:41;;;;;;;44.40;24.75;;;2.40;99.90;;;3.14;91.28;99158.13;4995096;28;20044;-82
2020/12/06 07:00:11;;;;;;;41.63;23.15;;;2.40;99.90;;;3.10;91.83;99155.25;4995455;28;20461;-82
2020/12/06 07:02:42;;;;;;;60.25;32.72;;;2.40;99.90;;;3.11;91.52;99142.25;4997085;28;20027;-81
2020/12/06 07:05:21;;;;;;;41.10;22.67;;;2.40;99.90;;;3.07;91.31;99142.16;4996637;28;20463;-80
2020/12/06 07:07:52;;;;;;;58.80;30.52;;;2.30;99.90;;;3.03;91.40;99129.38;5013690;28;20045;-83
2020/12/06 07:10:28;;;;;;;43.38;23.25;;;2.30;99.90;;;3.00;91.42;99124.56;5015246;28;20022;-82
2020/12/06 07:12:58;;;;;;;42.35;23.00;;;2.30;99.90;;;2.98;91.86;99115.81;5014878;28;20030;-81
2020/12/06 07:15:27;;;;;;;44.53;23.23;;;2.30;99.90;;;2.92;92.26;99106.97;5013598;28;20018;-79
2020/12/06 07:18:03;;;;;;;48.40;24.73;;;2.20;99.90;;;2.91;92.42;99110.88;5013625;28;20031;-81
2020/12/06 07:20:29;;;;;;;45.95;24.58;;;2.20;99.90;;;2.85;92.39;99115.03;5015971;28;20035;-80
2020/12/06 07:22:56;;;;;;;48.90;24.23;;;2.20;99.90;;;2.83;92.80;99122.00;5013087;28;20057;-79
2020/12/06 07:25:23;;;;;;;41.80;23.65;;;2.10;99.90;;;2.80;92.82;99137.28;5009700;28;20041;-83
2020/12/06 07:27:53;;;;;;;49.85;25.00;;;2.10;99.90;;;2.79;92.73;99143.16;4995429;28;20022;-82
2020/12/06 07:30:21;;;;;;;48.58;25.02;;;2.10;99.90;;;2.79;93.20;99138.47;5010244;28;20031;-83
2020/12/06 07:32:48;;;;;;;48.92;24.90;;;2.10;99.90;;;2.79;93.07;99146.72;4989373;28;20103;-80
2020/12/06 07:35:16;;;;;;;46.53;25.00;;;2.10;99.90;;;2.83;93.07;99146.81;4975769;28;20042;-81
2020/12/06 07:37:43;;;;;;;49.72;25.67;;;2.10;99.90;;;2.82;93.79;99143.28;4976580;28;20178;-80
2020/12/06 07:40:11;;;;;;;49.33;24.95;;;2.10;99.90;;;2.86;93.38;99138.66;4974720;28;20038;-80
2020/12/06 07:42:38;;;;;;;52.40;26.85;;;2.20;99.90;;;2.86;93.60;99149.69;4975717;28;20026;-81
2020/12/06 07:45:08;;;;;;;59.28;29.55;;;2.20;99.90;;;2.91;94.01;99145.91;4974479;28;20432;-81
2020/12/06 07:47:34;;;;;;;50.10;26.42;;;2.20;99.90;;;2.93;93.64;99157.41;4979731;28;20034;-79
2020/12/06 07:50:02;;;;;;;50.45;26.02;;;2.20;99.90;;;2.94;93.64;99154.31;4998930;28;20035;-82
2020/12/06 07:52:35;;;;;;;49.83;27.25;;;2.30;99.90;;;2.97;93.71;99152.81;4999729;28;20034;-83
2020/12/06 07:55:17;;;;;;;52.30;27.08;;;2.30;99.90;;;3.05;93.65;99157.44;5002189;28;20038;-82
2020/12/06 07:58:10;;;;;;;55.03;28.00;;;2.30;99.90;;;3.06;93.73;99162.59;5018885;28;20040;-81
2020/12/06 08:00:41;;;;;;;53.88;28.13;;;2.40;99.90;;;3.08;93.39;99170.53;5019461;28;20010;-80
2020/12/06 08:03:14;;;;;;;60.03;28.23;;;2.40;99.90;;;3.06;93.25;99173.63;5017433;28;20062;-82
2020/12/06 08:05:44;;;;;;;98.75;41.53;;;2.40;99.90;;;3.15;93.10;99181.78;5017123;28;20034;-81
2020/12/06 08:08:21;;;;;;;45.17;24.25;;;2.50;99.90;;;3.15;92.49;99184.53;5016490;28;20442;-80
2020/12/06 08:11:00;;;;;;;162.32;47.72;;;2.50;99.90;;;3.18;93.13;99186.59;5016281;28;20026;-80
2020/12/06 08:13:29;;;;;;;69.60;30.02;;;2.50;99.90;;;3.24;92.50;99179.72;5002787;28;20458;-83
2020/12/06 08:16:09;;;;;;;157.45;47.50;;;2.50;99.90;;;3.29;92.75;99187.78;4998436;28;20057;-81
2020/12/06 08:18:35;;;;;;;84.10;33.08;;;2.60;99.90;;;3.33;92.63;99188.69;4999442;28;20054;-78
2020/12/06 08:21:02;;;;;;;78.03;30.55;;;2.60;99.90;;;3.38;92.31;99177.41;4997415;28;20169;-82
2020/12/06 08:23:37;;;;;;;73.47;31.80;;;2.60;99.90;;;3.39;92.22;99169.94;4996744;28;20033;-80
2020/12/06 08:26:04;;;;;;;220.98;59.75;;;2.70;99.90;;;3.46;92.47;99170.97;4996680;28;20038;-80
2020/12/06 08:28:31;;;;;;;114.28;40.53;;;2.70;99.90;;;3.47;92.56;99175.31;4996728;28;20030;-80
2020/12/06 08:30:57;;;;;;;107.88;40.08;;;2.70;99.90;;;3.47;92.67;99167.03;4996673;28;20116;-81
2020/12/06 08:33:28;;;;;;;216.45;60.20;;;2.70;99.90;;;3.50;92.24;99171.88;4997355;28;20030;-80
2020/12/06 08:36:01;;;;;;;129.63;40.78;;;2.70;99.90;;;3.47;92.54;99167.03;4996438;28;20026;-80
2020/12/06 08:38:29;;;;;;;90.82;35.03;;;2.70;99.90;;;3.54;92.35;99160.94;4996968;28;20085;-81
2020/12/06 08:41:12;;;;;;;70.13;28.75;;;2.80;99.90;;;3.59;91.95;99150.50;4996080;28;20057;-83
2020/12/06 08:44:03;;;;;;;97.93;34.95;;;2.80;99.90;;;3.59;92.17;99150.50;4995666;28;20037;-81
2020/12/06 08:46:31;;;;;;;121.78;38.22;;;2.80;99.90;;;3.62;91.76;99140.69;4997256;28;20104;-80
2020/12/06 08:49:02;;;;;;;75.55;30.48;;;2.80;99.90;;;3.59;91.32;99133.13;4998352;28;20027;-82
2020/12/06 08:51:37;;;;;;;48.33;24.73;;;2.80;99.90;;;3.63;91.90;99140.34;4995740;28;20041;-80
2020/12/06 08:54:08;;;;;;;52.35;25.27;;;2.80;99.90;;;3.63;91.37;99134.00;5003545;28;20038;-82
2020/12/06 08:56:38;;;;;;;43.35;23.60;;;2.80;99.90;;;3.65;91.89;99140.81;4997150;28;20065;-80
2020/12/06 08:59:15;;;;;;;48.10;25.15;;;2.90;99.90;;;3.72;91.66;99138.25;4995296;28;20601;-80
2020/12/06 09:01:56;;;;;;;45.22;24.40;;;2.90;99.90;;;3.77;91.44;99130.88;4996228;28;20105;-79
2020/12/06 09:04:23;;;;;;;55.47;28.95;;;3.00;99.90;;;3.82;91.63;99123.13;4995253;28;20018;-80
2020/12/06 09:06:53;;;;;;;43.63;24.08;;;3.00;99.90;;;3.85;91.19;99138.22;4996538;28;20030;-79
2020/12/06 09:09:22;;;;;;;42.60;23.73;;;3.00;99.90;;;3.89;91.58;99123.34;4997993;28;20026;-78
2020/12/06 09:11:55;;;;;;;48.53;25.30;;;3.10;99.90;;;3.96;91.05;99118.03;4995391;28;20117;-81
2020/12/06 09:14:26;;;;;;;60.00;29.80;;;3.10;99.90;;;3.99;90.86;99130.34;4997522;28;20038;-81
2020/12/06 09:16:52;;;;;;;43.47;23.25;;;3.20;99.90;;;4.01;90.62;99111.47;4995257;28;20038;-81
2020/12/06 09:19:18;;;;;;;38.28;23.15;;;3.20;99.90;;;4.07;90.58;99110.06;4996205;28;20496;-81
2020/12/06 09:21:44;;;;;;;37.55;23.00;;;3.30;99.90;;;4.08;90.38;99117.97;4996788;28;20030;-79
2020/12/06 09:24:10;;;;;;;41.85;23.02;;;3.30;99.90;;;4.08;90.51;99111.66;4996213;28;20022;-79
2020/12/06 09:26:36;;;;;;;42.15;23.33;;;3.30;99.90;;;4.08;90.57;99106.13;4995137;28;20073;-79
2020/12/06 09:29:02;;;;;;;41.85;23.73;;;3.30;99.90;;;4.13;90.84;99114.19;4997803;28;20114;-79
2020/12/06 09:31:28;;;;;;;38.53;22.65;;;3.30;99.90;;;4.13;90.69;99103.13;4999183;28;20027;-80
2020/12/06 09:33:56;;;;;;;45.25;24.67;;;3.30;99.90;;;4.16;90.35;99099.66;4994919;28;20037;-82
2020/12/06 09:36:23;;;;;;;41.30;23.45;;;3.30;99.90;;;4.08;90.24;99109.69;4995065;28;20081;-81
2020/12/06 09:38:49;;;;;;;43.60;24.73;;;3.30;99.90;;;4.05;90.63;99093.81;4995046;28;20053;-81
2020/12/06 09:41:17;;;;;;;43.75;23.42;;;3.30;99.90;;;4.04;90.80;99091.44;4995165;28;20036;-83
2020/12/06 09:43:45;;;;;;;51.22;26.98;;;3.30;99.90;;;4.08;90.92;99098.63;4996095;28;20031;-80
2020/12/06 09:46:13;;;;;;;51.25;26.05;;;3.30;99.90;;;4.11;91.40;99103.47;4995989;28;20027;-83
2020/12/06 09:48:41;;;;;;;61.03;28.00;;;3.30;99.90;;;4.12;91.01;99104.28;4996094;28;20018;-81
2020/12/06 09:51:09;;;;;;;69.50;28.63;;;3.30;99.90;;;4.14;91.60;99113.81;5000160;28;20036;-83
2020/12/06 09:53:35;;;;;;;46.83;24.55;;;3.40;99.90;;;4.15;91.05;99109.09;5012888;28;20034;-81
2020/12/06 09:56:04;;;;;;;43.30;24.45;;;3.40;99.90;;;4.13;91.16;99116.94;4998266;28;20109;-81
2020/12/06 09:58:30;;;;;;;40.80;23.75;;;3.30;99.90;;;4.12;91.02;99113.38;4979004;28;20039;-81
2020/12/06 10:00:56;;;;;;;42.60;24.65;;;3.40;99.90;;;4.13;91.09;99119.69;4995588;28;20040;-80
2020/12/06 10:03:25;;;;;;;46.28;24.98;;;3.40;99.90;;;4.17;90.99;99113.09;4995761;28;20031;-79
2020/12/06 10:05:51;;;;;;;55.88;26.92;;;3.40;99.90;;;4.13;91.33;99108.66;4996046;28;20030;-83
2020/12/06 10:08:16;;;;;;;67.45;27.98;;;3.30;99.90;;;4.11;91.68;99102.69;4978297;28;20037;-82
2020/12/06 10:10:43;;;;;;;62.35;26.67;;;3.40;99.90;;;4.13;91.68;99111.41;4993592;28;20143;-80
2020/12/06 10:13:08;;;;;;;49.03;24.80;;;3.40;99.90;;;4.18;91.89;99108.38;4994705;28;20038;-79
2020/12/06 10:15:36;;;;;;;40.15;23.42;;;3.40;99.90;;;4.16;91.60;99111.50;4995940;28;20181;-81
2020/12/06 10:18:02;;;;;;;71.88;30.45;;;3.40;99.90;;;4.14;91.86;99116.56;4993915;28;20057;-81
2020/12/06 10:20:28;;;;;;;85.80;33.08;;;3.40;99.90;;;4.14;92.12;99115.78;4993481;28;20490;-78
2020/12/06 10:22:55;;;;;;;45.17;24.55;;;3.40;99.90;;;4.15;91.77;99101.59;4978029;28;20125;-81
2020/12/06 10:25:21;;;;;;;57.47;27.20;;;3.40;99.90;;;4.15;91.90;99103.56;4995365;28;20157;-81